createdAt,value
2018-02-16T00:00:20.292Z,16.60
2018-02-16T00:00:52.050Z,16.60
2018-02-16T00:01:23.759Z,16.60
2018-02-16T00:01:55.487Z,16.60
2018-02-16T00:02:27.998Z,16.60
2018-02-16T00:02:59.709Z,16.60
2018-02-16T00:03:31.465Z,16.60
2018-02-16T00:04:03.201Z,16.60
2018-02-16T00:04:35.720Z,16.60
2018-02-16T00:05:07.469Z,16.60
2018-02-16T00:05:39.217Z,16.60
2018-02-16T00:06:10.976Z,16.60
2018-02-16T00:06:43.528Z,16.60
2018-02-16T00:07:15.259Z,16.60
2018-02-16T00:07:47.000Z,16.60
2018-02-16T00:08:18.737Z,16.60
2018-02-16T00:08:50.489Z,16.60
2018-02-16T00:09:22.218Z,16.50
2018-02-16T00:09:53.965Z,16.60
2018-02-16T00:10:25.700Z,16.60
2018-02-16T00:10:57.435Z,16.60
2018-02-16T00:11:29.155Z,16.60
2018-02-16T00:12:01.656Z,16.60
2018-02-16T00:12:33.435Z,16.60
2018-02-16T00:13:05.184Z,16.60
2018-02-16T00:13:36.907Z,16.60
2018-02-16T00:14:08.651Z,16.50
2018-02-16T00:14:40.437Z,16.60
2018-02-16T00:15:12.957Z,16.60
2018-02-16T00:15:44.687Z,16.60
2018-02-16T00:16:16.428Z,16.60
2018-02-16T00:16:48.185Z,16.60
2018-02-16T00:17:19.914Z,16.60
2018-02-16T00:17:51.637Z,16.60
2018-02-16T00:18:23.372Z,16.60
2018-02-16T00:18:55.889Z,16.60
2018-02-16T00:19:27.640Z,16.60
2018-02-16T00:19:59.386Z,16.60
2018-02-16T00:20:31.121Z,16.60
2018-02-16T00:21:02.851Z,16.60
2018-02-16T00:21:34.610Z,16.60
2018-02-16T00:22:06.317Z,16.50
2018-02-16T00:22:38.036Z,16.50
2018-02-16T00:23:10.540Z,16.50
2018-02-16T00:23:42.283Z,16.50
2018-02-16T00:24:14.026Z,16.50
2018-02-16T00:24:45.766Z,16.60
2018-02-16T00:25:17.487Z,16.60
2018-02-16T00:25:49.215Z,16.60
2018-02-16T00:26:21.738Z,16.60
2018-02-16T00:26:53.487Z,16.50
2018-02-16T00:27:25.232Z,16.60
2018-02-16T00:27:56.968Z,16.50
2018-02-16T00:28:28.740Z,16.50
2018-02-16T00:29:00.500Z,16.50
2018-02-16T00:29:33.004Z,16.50
2018-02-16T00:30:04.728Z,16.50
2018-02-16T00:30:36.460Z,16.50
2018-02-16T00:31:08.190Z,16.50
2018-02-16T00:31:40.698Z,16.50
2018-02-16T00:32:12.413Z,16.60
2018-02-16T00:32:44.135Z,16.50
2018-02-16T00:33:16.679Z,16.50
2018-02-16T00:33:48.428Z,16.50
2018-02-16T00:34:20.148Z,16.50
2018-02-16T00:34:51.939Z,16.50
2018-02-16T00:35:24.423Z,16.50
2018-02-16T00:35:56.157Z,16.50
2018-02-16T00:36:27.889Z,16.50
2018-02-16T00:37:00.396Z,16.50
2018-02-16T00:37:32.141Z,16.50
2018-02-16T00:38:03.873Z,16.50
2018-02-16T00:38:35.632Z,16.50
2018-02-16T00:39:07.429Z,16.50
2018-02-16T00:39:39.962Z,16.50
2018-02-16T00:40:11.785Z,16.50
2018-02-16T00:40:43.521Z,16.50
2018-02-16T00:41:15.372Z,16.50
2018-02-16T00:41:47.843Z,16.50
2018-02-16T00:42:19.580Z,16.50
2018-02-16T00:42:51.302Z,16.50
2018-02-16T00:43:23.029Z,16.50
2018-02-16T00:43:55.532Z,16.50
2018-02-16T00:44:27.269Z,16.50
2018-02-16T00:44:59.003Z,16.50
2018-02-16T00:45:30.748Z,16.50
2018-02-16T00:46:02.477Z,16.50
2018-02-16T00:46:34.244Z,16.50
2018-02-16T00:47:05.967Z,16.50
2018-02-16T00:47:37.715Z,16.50
2018-02-16T00:48:10.208Z,16.50
2018-02-16T00:48:41.921Z,16.50
2018-02-16T00:49:13.748Z,16.50
2018-02-16T00:49:46.445Z,16.50
2018-02-16T00:50:18.179Z,16.50
2018-02-16T00:50:49.900Z,16.50
2018-02-16T00:51:22.418Z,16.50
2018-02-16T00:51:54.193Z,16.50
2018-02-16T00:52:25.984Z,16.50
2018-02-16T00:52:57.741Z,16.50
2018-02-16T00:53:29.466Z,16.50
2018-02-16T00:54:01.212Z,16.50
2018-02-16T00:54:32.959Z,16.50
2018-02-16T00:55:04.686Z,16.50
2018-02-16T00:55:37.184Z,16.50
2018-02-16T00:56:08.919Z,16.50
2018-02-16T00:56:40.644Z,16.50
2018-02-16T00:57:12.381Z,16.50
2018-02-16T00:57:44.900Z,16.50
2018-02-16T00:58:16.617Z,16.50
2018-02-16T00:58:48.395Z,16.50
2018-02-16T00:59:20.124Z,16.50
2018-02-16T00:59:51.883Z,16.50
2018-02-16T01:00:23.611Z,16.50
2018-02-16T01:00:55.364Z,16.50
2018-02-16T01:01:27.098Z,16.50
2018-02-16T01:01:58.849Z,16.50
2018-02-16T01:02:30.577Z,16.50
2018-02-16T01:03:02.317Z,16.50
2018-02-16T01:03:34.028Z,16.50
2018-02-16T01:04:05.768Z,16.50
2018-02-16T01:04:38.304Z,16.50
2018-02-16T01:05:10.104Z,16.50
2018-02-16T01:05:41.829Z,16.50
2018-02-16T01:06:13.651Z,16.50
2018-02-16T01:06:45.404Z,16.50
2018-02-16T01:07:17.913Z,16.50
2018-02-16T01:07:49.684Z,16.50
2018-02-16T01:08:21.442Z,16.50
2018-02-16T01:08:53.174Z,16.50
2018-02-16T01:09:24.912Z,16.50
2018-02-16T01:09:56.651Z,16.50
2018-02-16T01:10:28.405Z,16.50
2018-02-16T01:11:00.165Z,16.50
2018-02-16T01:11:31.887Z,16.50
2018-02-16T01:12:03.624Z,16.50
2018-02-16T01:12:35.384Z,16.50
2018-02-16T01:13:07.119Z,16.50
2018-02-16T01:13:38.860Z,16.50
2018-02-16T01:14:10.595Z,16.50
2018-02-16T01:14:42.340Z,16.50
2018-02-16T01:15:14.056Z,16.50
2018-02-16T01:15:45.783Z,16.50
2018-02-16T01:16:18.300Z,16.50
2018-02-16T01:16:50.035Z,16.50
2018-02-16T01:17:21.767Z,16.50
2018-02-16T01:17:53.522Z,16.50
2018-02-16T01:18:25.245Z,16.50
2018-02-16T01:18:56.992Z,16.50
2018-02-16T01:19:28.734Z,16.50
2018-02-16T01:20:00.455Z,16.50
2018-02-16T01:20:32.200Z,16.50
2018-02-16T01:21:04.692Z,16.50
2018-02-16T01:21:36.420Z,16.50
2018-02-16T01:22:08.177Z,16.50
2018-02-16T01:22:40.647Z,16.50
2018-02-16T01:23:12.386Z,16.50
2018-02-16T01:23:44.144Z,16.50
2018-02-16T01:24:15.841Z,16.50
2018-02-16T01:24:48.344Z,16.50
2018-02-16T01:25:20.066Z,16.50
2018-02-16T01:25:51.793Z,16.50
2018-02-16T01:26:24.317Z,16.50
2018-02-16T01:26:56.050Z,16.50
2018-02-16T01:27:27.801Z,16.50
2018-02-16T01:27:59.523Z,16.50
2018-02-16T01:28:31.311Z,16.50
2018-02-16T01:29:03.017Z,16.50
2018-02-16T01:29:34.737Z,16.50
2018-02-16T01:30:07.244Z,16.50
2018-02-16T01:30:38.984Z,16.50
2018-02-16T01:31:10.705Z,16.50
2018-02-16T01:31:42.429Z,16.50
2018-02-16T01:32:14.158Z,16.50
2018-02-16T01:32:46.655Z,16.50
2018-02-16T01:33:18.409Z,16.50
2018-02-16T01:33:50.131Z,16.50
2018-02-16T01:34:21.886Z,16.50
2018-02-16T01:34:53.635Z,16.50
2018-02-16T01:35:25.373Z,16.50
2018-02-16T01:35:57.100Z,16.50
2018-02-16T01:36:28.851Z,16.50
2018-02-16T01:37:00.576Z,16.50
2018-02-16T01:37:33.152Z,16.50
2018-02-16T01:38:04.921Z,16.50
2018-02-16T01:38:36.644Z,16.50
2018-02-16T01:39:08.381Z,16.50
2018-02-16T01:39:40.116Z,16.50
2018-02-16T01:40:12.636Z,16.50
2018-02-16T01:40:44.351Z,16.50
2018-02-16T01:41:16.079Z,16.50
2018-02-16T01:41:47.876Z,16.50
2018-02-16T01:42:19.619Z,16.50
2018-02-16T01:42:51.356Z,16.50
2018-02-16T01:43:23.113Z,16.50
2018-02-16T01:43:54.851Z,16.40
2018-02-16T01:44:26.584Z,16.50
2018-02-16T01:44:58.371Z,16.50
2018-02-16T01:45:30.087Z,16.50
2018-02-16T01:46:01.840Z,16.50
2018-02-16T01:46:33.559Z,16.50
2018-02-16T01:47:05.304Z,16.50
2018-02-16T01:47:37.037Z,16.50
2018-02-16T01:48:08.778Z,16.50
2018-02-16T01:48:40.523Z,16.50
2018-02-16T01:49:12.262Z,16.50
2018-02-16T01:49:43.970Z,16.50
2018-02-16T01:50:16.488Z,16.50
2018-02-16T01:50:48.225Z,16.50
2018-02-16T01:51:19.966Z,16.50
2018-02-16T01:51:51.694Z,16.50
2018-02-16T01:52:23.433Z,16.50
2018-02-16T01:52:55.161Z,16.50
2018-02-16T01:53:27.657Z,16.50
2018-02-16T01:53:59.391Z,16.50
2018-02-16T01:54:31.118Z,16.50
2018-02-16T01:55:02.847Z,16.50
2018-02-16T01:55:35.340Z,16.50
2018-02-16T01:56:07.085Z,16.50
2018-02-16T01:56:38.816Z,16.50
2018-02-16T01:57:10.560Z,16.50
2018-02-16T01:57:42.323Z,16.50
2018-02-16T01:58:14.052Z,16.50
2018-02-16T01:58:45.796Z,16.50
2018-02-16T01:59:17.519Z,16.50
2018-02-16T01:59:50.126Z,16.50
2018-02-16T02:00:21.823Z,16.50
2018-02-16T02:00:54.333Z,16.40
2018-02-16T02:01:26.054Z,16.50
2018-02-16T02:01:57.790Z,16.50
2018-02-16T02:02:29.533Z,16.50
2018-02-16T02:03:01.282Z,16.50
2018-02-16T02:03:33.794Z,16.50
2018-02-16T02:04:05.580Z,16.50
2018-02-16T02:04:37.282Z,16.50
2018-02-16T02:05:09.105Z,16.50
2018-02-16T02:05:41.575Z,16.50
2018-02-16T02:06:13.313Z,16.50
2018-02-16T02:06:45.040Z,16.50
2018-02-16T02:07:16.768Z,16.50
2018-02-16T02:07:48.503Z,16.50
2018-02-16T02:08:21.004Z,16.50
2018-02-16T02:08:52.747Z,16.50
2018-02-16T02:09:24.484Z,16.50
2018-02-16T02:09:56.219Z,16.50
2018-02-16T02:10:27.953Z,16.50
2018-02-16T02:10:59.701Z,16.50
2018-02-16T02:11:32.198Z,16.50
2018-02-16T02:12:04.020Z,16.50
2018-02-16T02:12:35.778Z,16.50
2018-02-16T02:13:08.243Z,16.50
2018-02-16T02:13:39.984Z,16.50
2018-02-16T02:14:11.711Z,16.50
2018-02-16T02:14:43.445Z,16.50
2018-02-16T02:15:15.226Z,16.50
2018-02-16T02:15:46.952Z,16.50
2018-02-16T02:16:18.687Z,16.50
2018-02-16T02:16:50.412Z,16.50
2018-02-16T02:17:22.920Z,16.50
2018-02-16T02:17:54.643Z,16.50
2018-02-16T02:18:26.376Z,16.50
2018-02-16T02:18:58.109Z,16.50
2018-02-16T02:19:30.612Z,16.50
2018-02-16T02:20:02.433Z,16.50
2018-02-16T02:20:34.950Z,16.50
2018-02-16T02:21:06.698Z,16.50
2018-02-16T02:21:38.408Z,16.50
2018-02-16T02:22:10.167Z,16.50
2018-02-16T02:22:41.901Z,16.50
2018-02-16T02:23:13.620Z,16.50
2018-02-16T02:23:45.368Z,16.50
2018-02-16T02:24:17.099Z,16.50
2018-02-16T02:24:48.846Z,16.50
2018-02-16T02:25:20.584Z,16.50
2018-02-16T02:25:52.330Z,16.50
2018-02-16T02:26:24.073Z,16.50
2018-02-16T02:26:55.817Z,16.50
2018-02-16T02:27:28.315Z,16.50
2018-02-16T02:28:00.060Z,16.50
2018-02-16T02:28:31.771Z,16.50
2018-02-16T02:29:03.520Z,16.50
2018-02-16T02:29:35.281Z,16.50
2018-02-16T02:30:07.032Z,16.50
2018-02-16T02:30:38.808Z,16.60
2018-02-16T02:31:10.529Z,16.50
2018-02-16T02:31:42.270Z,16.50
2018-02-16T02:32:14.028Z,16.60
2018-02-16T02:32:45.751Z,16.60
2018-02-16T02:33:17.474Z,16.60
2018-02-16T02:33:49.215Z,16.60
2018-02-16T02:34:20.943Z,16.60
2018-02-16T02:34:53.444Z,16.50
2018-02-16T02:35:25.179Z,16.50
2018-02-16T02:35:56.925Z,16.60
2018-02-16T02:36:28.664Z,16.50
2018-02-16T02:37:00.399Z,16.50
2018-02-16T02:37:32.132Z,16.50
2018-02-16T02:38:04.631Z,16.50
2018-02-16T02:38:36.372Z,16.50
2018-02-16T02:39:08.091Z,16.50
2018-02-16T02:39:39.841Z,16.50
2018-02-16T02:40:12.329Z,16.50
2018-02-16T02:40:44.065Z,16.50
2018-02-16T02:41:15.811Z,16.50
2018-02-16T02:41:47.540Z,16.50
2018-02-16T02:42:19.278Z,16.50
2018-02-16T02:42:51.007Z,16.50
2018-02-16T02:43:23.508Z,16.50
2018-02-16T02:43:55.245Z,16.50
2018-02-16T02:44:26.978Z,16.50
2018-02-16T02:44:58.736Z,16.50
2018-02-16T02:45:30.463Z,16.50
2018-02-16T02:46:02.260Z,16.50
2018-02-16T02:46:34.005Z,16.50
2018-02-16T02:47:05.767Z,16.50
2018-02-16T02:47:37.490Z,16.50
2018-02-16T02:48:09.249Z,16.50
2018-02-16T02:48:41.016Z,16.50
2018-02-16T02:49:13.517Z,16.50
2018-02-16T02:49:45.255Z,16.50
2018-02-16T02:50:17.008Z,16.50
2018-02-16T02:50:48.747Z,16.50
2018-02-16T02:51:20.483Z,16.50
2018-02-16T02:51:52.228Z,16.50
2018-02-16T02:52:24.021Z,16.50
2018-02-16T02:52:55.745Z,16.50
2018-02-16T02:53:27.488Z,16.50
2018-02-16T02:53:59.224Z,16.50
2018-02-16T02:54:30.963Z,16.50
2018-02-16T02:55:02.711Z,16.50
2018-02-16T02:55:34.446Z,16.50
2018-02-16T02:56:06.164Z,16.50
2018-02-16T02:56:37.908Z,16.50
2018-02-16T02:57:09.644Z,16.50
2018-02-16T02:57:42.146Z,16.40
2018-02-16T02:58:13.987Z,16.50
2018-02-16T02:58:45.694Z,16.40
2018-02-16T02:59:18.199Z,16.40
2018-02-16T02:59:50.019Z,16.40
2018-02-16T03:00:22.528Z,16.40
2018-02-16T03:00:54.253Z,16.40
2018-02-16T03:01:25.988Z,16.40
2018-02-16T03:01:57.737Z,16.40
2018-02-16T03:02:29.480Z,16.40
2018-02-16T03:03:01.212Z,16.40
2018-02-16T03:03:32.944Z,16.40
2018-02-16T03:04:04.683Z,16.40
2018-02-16T03:04:36.515Z,16.40
2018-02-16T03:05:08.235Z,16.50
2018-02-16T03:05:39.986Z,16.50
2018-02-16T03:06:11.714Z,16.40
2018-02-16T03:06:43.437Z,16.40
2018-02-16T03:07:15.222Z,16.40
2018-02-16T03:07:46.949Z,16.40
2018-02-16T03:08:18.669Z,16.40
2018-02-16T03:08:50.417Z,16.40
2018-02-16T03:09:22.171Z,16.40
2018-02-16T03:09:54.010Z,16.40
2018-02-16T03:10:25.740Z,16.40
2018-02-16T03:10:57.467Z,16.40
2018-02-16T03:11:29.191Z,16.50
2018-02-16T03:12:01.694Z,16.50
2018-02-16T03:12:33.474Z,16.40
2018-02-16T03:13:05.180Z,16.40
2018-02-16T03:13:36.903Z,16.40
2018-02-16T03:14:08.644Z,16.40
2018-02-16T03:14:40.387Z,16.50
2018-02-16T03:15:12.896Z,16.50
2018-02-16T03:15:44.615Z,16.40
2018-02-16T03:16:16.345Z,16.50
2018-02-16T03:16:48.146Z,16.40
2018-02-16T03:17:19.854Z,16.40
2018-02-16T03:17:51.600Z,16.40
2018-02-16T03:18:23.318Z,16.40
2018-02-16T03:18:55.058Z,16.40
2018-02-16T03:19:27.561Z,16.50
2018-02-16T03:19:59.397Z,16.40
2018-02-16T03:20:31.854Z,16.40
2018-02-16T03:21:03.585Z,16.40
2018-02-16T03:21:35.330Z,16.40
2018-02-16T03:22:07.062Z,16.40
2018-02-16T03:22:38.791Z,16.40
2018-02-16T03:23:11.369Z,16.40
2018-02-16T03:23:43.876Z,16.40
2018-02-16T03:24:15.616Z,16.40
2018-02-16T03:24:47.361Z,16.40
2018-02-16T03:25:19.083Z,16.40
2018-02-16T03:25:50.812Z,16.40
2018-02-16T03:26:22.543Z,16.40
2018-02-16T03:26:55.074Z,16.40
2018-02-16T03:27:26.801Z,16.30
2018-02-16T03:27:58.541Z,16.40
2018-02-16T03:28:30.268Z,16.40
2018-02-16T03:29:01.993Z,16.40
2018-02-16T03:29:33.735Z,16.40
2018-02-16T03:30:06.295Z,16.40
2018-02-16T03:30:38.808Z,16.40
2018-02-16T03:31:10.543Z,16.40
2018-02-16T03:31:42.265Z,16.40
2018-02-16T03:32:13.998Z,16.40
2018-02-16T03:32:45.720Z,16.40
2018-02-16T03:33:18.215Z,16.40
2018-02-16T03:33:49.984Z,16.40
2018-02-16T03:34:21.707Z,16.40
2018-02-16T03:34:53.450Z,16.40
2018-02-16T03:35:25.192Z,16.40
2018-02-16T03:35:56.925Z,16.40
2018-02-16T03:36:28.651Z,16.40
2018-02-16T03:37:01.225Z,16.40
2018-02-16T03:37:33.719Z,16.30
2018-02-16T03:38:05.452Z,16.30
2018-02-16T03:38:37.281Z,16.40
2018-02-16T03:39:08.987Z,16.30
2018-02-16T03:39:40.732Z,16.30
2018-02-16T03:40:12.487Z,16.30
2018-02-16T03:40:44.230Z,16.30
2018-02-16T03:41:15.970Z,16.30
2018-02-16T03:41:47.707Z,16.30
2018-02-16T03:42:19.448Z,16.40
2018-02-16T03:42:51.188Z,16.40
2018-02-16T03:43:22.931Z,16.40
2018-02-16T03:43:54.652Z,16.30
2018-02-16T03:44:26.392Z,16.30
2018-02-16T03:44:58.209Z,16.30
2018-02-16T03:45:30.693Z,16.30
2018-02-16T03:46:02.425Z,16.30
2018-02-16T03:46:34.168Z,16.30
2018-02-16T03:47:05.902Z,16.30
2018-02-16T03:47:37.651Z,16.30
2018-02-16T03:48:10.145Z,16.40
2018-02-16T03:48:41.874Z,16.30
2018-02-16T03:49:13.604Z,16.30
2018-02-16T03:49:45.341Z,16.30
2018-02-16T03:50:17.859Z,16.30
2018-02-16T03:50:49.604Z,16.30
2018-02-16T03:51:21.376Z,16.30
2018-02-16T03:51:53.106Z,16.30
2018-02-16T03:52:24.860Z,16.40
2018-02-16T03:52:56.599Z,16.30
2018-02-16T03:53:28.356Z,16.30
2018-02-16T03:54:00.075Z,16.30
2018-02-16T03:54:31.813Z,16.40
2018-02-16T03:55:03.556Z,16.30
2018-02-16T03:55:35.463Z,16.40
2018-02-16T03:56:07.292Z,16.40
2018-02-16T03:56:39.877Z,16.40
2018-02-16T03:57:12.347Z,16.40
2018-02-16T03:57:44.080Z,16.40
2018-02-16T03:58:15.806Z,16.30
2018-02-16T03:58:48.306Z,16.40
2018-02-16T03:59:20.028Z,16.40
2018-02-16T03:59:51.759Z,16.40
2018-02-16T04:00:24.260Z,16.40
2018-02-16T04:00:56.025Z,16.40
2018-02-16T04:01:27.812Z,16.30
2018-02-16T04:02:00.320Z,16.30
2018-02-16T04:02:32.043Z,16.30
2018-02-16T04:03:03.768Z,16.30
2018-02-16T04:03:35.542Z,16.30
2018-02-16T04:04:07.286Z,16.30
2018-02-16T04:04:39.004Z,16.30
2018-02-16T04:05:10.738Z,16.30
2018-02-16T04:05:43.227Z,16.30
2018-02-16T04:06:14.949Z,16.30
2018-02-16T04:06:46.699Z,16.30
2018-02-16T04:07:18.425Z,16.30
2018-02-16T04:07:50.925Z,16.30
2018-02-16T04:08:22.639Z,16.30
2018-02-16T04:08:54.380Z,16.30
2018-02-16T04:09:26.875Z,16.30
2018-02-16T04:09:58.593Z,16.30
2018-02-16T04:10:30.336Z,16.30
2018-02-16T04:11:02.843Z,16.30
2018-02-16T04:11:34.565Z,16.30
2018-02-16T04:12:06.295Z,16.30
2018-02-16T04:12:38.028Z,16.30
2018-02-16T04:13:10.524Z,16.30
2018-02-16T04:13:42.259Z,16.30
2018-02-16T04:14:14.076Z,16.30
2018-02-16T04:14:46.595Z,16.30
2018-02-16T04:15:18.331Z,16.30
2018-02-16T04:15:50.074Z,16.30
2018-02-16T04:16:21.824Z,16.30
2018-02-16T04:16:53.560Z,16.30
2018-02-16T04:17:25.351Z,16.30
2018-02-16T04:17:57.142Z,16.30
2018-02-16T04:18:28.856Z,16.30
2018-02-16T04:19:00.594Z,16.30
2018-02-16T04:19:33.086Z,16.30
2018-02-16T04:20:04.830Z,16.30
2018-02-16T04:20:36.567Z,16.30
2018-02-16T04:21:08.316Z,16.30
2018-02-16T04:21:40.037Z,16.30
2018-02-16T04:22:12.562Z,16.30
2018-02-16T04:22:44.296Z,16.30
2018-02-16T04:23:16.037Z,16.30
2018-02-16T04:23:47.774Z,16.30
2018-02-16T04:24:19.500Z,16.30
2018-02-16T04:24:51.229Z,16.30
2018-02-16T04:25:22.963Z,16.30
2018-02-16T04:25:55.455Z,16.30
2018-02-16T04:26:27.203Z,16.30
2018-02-16T04:26:59.008Z,16.30
2018-02-16T04:27:31.525Z,16.30
2018-02-16T04:28:03.244Z,16.30
2018-02-16T04:28:34.988Z,16.30
2018-02-16T04:29:06.748Z,16.30
2018-02-16T04:29:38.481Z,16.30
2018-02-16T04:30:10.219Z,16.30
2018-02-16T04:30:41.947Z,16.30
2018-02-16T04:31:13.670Z,16.20
2018-02-16T04:31:46.191Z,16.20
2018-02-16T04:32:17.936Z,16.20
2018-02-16T04:32:49.674Z,16.20
2018-02-16T04:33:21.425Z,16.30
2018-02-16T04:33:53.161Z,16.30
2018-02-16T04:34:24.929Z,16.20
2018-02-16T04:34:56.631Z,16.30
2018-02-16T04:35:28.352Z,16.20
2018-02-16T04:36:00.885Z,16.30
2018-02-16T04:36:32.601Z,16.20
2018-02-16T04:37:04.357Z,16.30
2018-02-16T04:37:36.082Z,16.20
2018-02-16T04:38:07.812Z,16.20
2018-02-16T04:38:39.534Z,16.30
2018-02-16T04:39:12.028Z,16.20
2018-02-16T04:39:43.762Z,16.20
2018-02-16T04:40:15.510Z,16.20
2018-02-16T04:40:47.306Z,16.30
2018-02-16T04:41:19.048Z,16.20
2018-02-16T04:41:50.797Z,16.20
2018-02-16T04:42:22.613Z,16.20
2018-02-16T04:42:54.352Z,16.20
2018-02-16T04:43:26.112Z,16.20
2018-02-16T04:43:57.820Z,16.30
2018-02-16T04:44:29.566Z,16.30
2018-02-16T04:45:01.306Z,16.20
2018-02-16T04:45:33.052Z,16.30
2018-02-16T04:46:04.785Z,16.20
2018-02-16T04:46:37.302Z,16.20
2018-02-16T04:47:09.005Z,16.30
2018-02-16T04:47:40.776Z,16.30
2018-02-16T04:48:12.534Z,16.20
2018-02-16T04:48:44.233Z,16.30
2018-02-16T04:49:15.959Z,16.30
2018-02-16T04:49:48.464Z,16.20
2018-02-16T04:50:20.183Z,16.20
2018-02-16T04:50:51.912Z,16.20
2018-02-16T04:51:24.421Z,16.30
2018-02-16T04:51:56.911Z,16.20
2018-02-16T04:52:28.670Z,16.20
2018-02-16T04:53:00.393Z,16.20
2018-02-16T04:53:32.131Z,16.20
2018-02-16T04:54:03.905Z,16.20
2018-02-16T04:54:35.661Z,16.20
2018-02-16T04:55:07.423Z,16.20
2018-02-16T04:55:39.145Z,16.20
2018-02-16T04:56:10.886Z,16.20
2018-02-16T04:56:42.631Z,16.20
2018-02-16T04:57:14.373Z,16.20
2018-02-16T04:57:46.121Z,16.20
2018-02-16T04:58:17.868Z,16.30
2018-02-16T04:58:49.621Z,16.20
2018-02-16T04:59:21.371Z,16.30
2018-02-16T04:59:53.134Z,16.20
2018-02-16T05:00:24.880Z,16.20
2018-02-16T05:00:56.731Z,16.20
2018-02-16T05:01:28.448Z,16.20
2018-02-16T05:02:00.193Z,16.30
2018-02-16T05:02:31.972Z,16.40
2018-02-16T05:03:03.721Z,16.40
2018-02-16T05:03:36.248Z,16.50
2018-02-16T05:04:08.016Z,16.50
2018-02-16T05:04:39.778Z,16.60
2018-02-16T05:05:12.282Z,16.60
2018-02-16T05:05:44.037Z,16.60
2018-02-16T05:06:15.854Z,16.60
2018-02-16T05:06:47.584Z,16.70
2018-02-16T05:07:19.341Z,16.70
2018-02-16T05:07:51.091Z,16.70
2018-02-16T05:08:22.846Z,16.70
2018-02-16T05:08:54.579Z,16.70
2018-02-16T05:09:26.343Z,16.70
2018-02-16T05:09:58.075Z,16.70
2018-02-16T05:10:29.821Z,16.80
2018-02-16T05:11:01.572Z,16.70
2018-02-16T05:11:33.301Z,16.70
2018-02-16T05:12:05.051Z,16.70
2018-02-16T05:12:36.779Z,16.80
2018-02-16T05:13:08.557Z,16.80
2018-02-16T05:13:40.292Z,16.80
2018-02-16T05:14:12.043Z,16.80
2018-02-16T05:14:43.784Z,16.80
2018-02-16T05:15:15.530Z,16.80
2018-02-16T05:15:47.371Z,16.80
2018-02-16T05:16:19.131Z,16.80
2018-02-16T05:16:50.834Z,16.80
2018-02-16T05:17:22.575Z,16.80
2018-02-16T05:17:54.314Z,16.80
2018-02-16T05:18:26.918Z,16.80
2018-02-16T05:18:58.651Z,16.80
2018-02-16T05:19:30.381Z,16.80
2018-02-16T05:20:02.142Z,16.80
2018-02-16T05:20:33.874Z,16.80
2018-02-16T05:21:05.608Z,16.80
2018-02-16T05:21:37.366Z,16.80
2018-02-16T05:22:09.089Z,16.80
2018-02-16T05:22:40.823Z,16.80
2018-02-16T05:23:12.564Z,16.80
2018-02-16T05:23:44.309Z,16.80
2018-02-16T05:24:16.049Z,16.80
2018-02-16T05:24:48.561Z,16.80
2018-02-16T05:25:20.320Z,16.80
2018-02-16T05:25:52.045Z,16.80
2018-02-16T05:26:23.802Z,16.80
2018-02-16T05:26:55.572Z,16.80
2018-02-16T05:27:27.308Z,16.80
2018-02-16T05:27:59.082Z,16.80
2018-02-16T05:28:30.821Z,16.80
2018-02-16T05:29:02.552Z,16.90
2018-02-16T05:29:34.310Z,16.90
2018-02-16T05:30:06.041Z,16.90
2018-02-16T05:30:37.792Z,16.90
2018-02-16T05:31:10.339Z,16.90
2018-02-16T05:31:42.076Z,16.90
2018-02-16T05:32:13.834Z,17.00
2018-02-16T05:32:45.585Z,16.90
2018-02-16T05:33:17.303Z,16.90
2018-02-16T05:33:49.046Z,16.90
2018-02-16T05:34:20.839Z,16.90
2018-02-16T05:34:53.360Z,16.90
2018-02-16T05:35:25.124Z,16.90
2018-02-16T05:35:56.847Z,16.90
2018-02-16T05:36:29.480Z,16.90
2018-02-16T05:37:01.223Z,16.90
2018-02-16T05:37:33.760Z,16.90
2018-02-16T05:38:05.531Z,16.90
2018-02-16T05:38:37.264Z,16.90
2018-02-16T05:39:09.054Z,16.90
2018-02-16T05:39:41.581Z,16.90
2018-02-16T05:40:13.320Z,16.90
2018-02-16T05:40:45.067Z,17.00
2018-02-16T05:41:16.811Z,17.00
2018-02-16T05:41:48.568Z,17.00
2018-02-16T05:42:20.381Z,17.00
2018-02-16T05:42:52.124Z,17.10
2018-02-16T05:43:23.861Z,17.10
2018-02-16T05:43:55.685Z,17.20
2018-02-16T05:44:27.453Z,17.20
2018-02-16T05:44:59.286Z,17.20
2018-02-16T05:45:31.131Z,17.30
2018-02-16T05:46:02.882Z,17.30
2018-02-16T05:46:34.634Z,17.40
2018-02-16T05:47:06.372Z,17.40
2018-02-16T05:47:38.112Z,17.40
2018-02-16T05:48:09.859Z,17.40
2018-02-16T05:48:41.602Z,17.40
2018-02-16T05:49:13.428Z,17.50
2018-02-16T05:49:45.172Z,17.50
2018-02-16T05:50:17.704Z,17.50
2018-02-16T05:50:49.453Z,17.50
2018-02-16T05:51:21.223Z,17.50
2018-02-16T05:51:53.004Z,17.50
2018-02-16T05:52:24.733Z,17.50
2018-02-16T05:52:56.492Z,17.60
2018-02-16T05:53:28.234Z,17.60
2018-02-16T05:53:59.985Z,17.60
2018-02-16T05:54:31.746Z,17.60
2018-02-16T05:55:04.251Z,17.60
2018-02-16T05:55:36.003Z,17.60
2018-02-16T05:56:07.744Z,17.60
2018-02-16T05:56:39.489Z,17.60
2018-02-16T05:57:11.244Z,17.60
2018-02-16T05:57:42.992Z,17.60
2018-02-16T05:58:14.725Z,17.60
2018-02-16T05:58:46.474Z,17.60
2018-02-16T05:59:18.244Z,17.60
2018-02-16T05:59:50.755Z,17.60
2018-02-16T06:00:22.528Z,17.60
2018-02-16T06:00:54.273Z,17.60
2018-02-16T06:01:26.045Z,17.60
2018-02-16T06:01:58.555Z,17.60
2018-02-16T06:02:30.293Z,17.60
2018-02-16T06:03:02.066Z,17.60
2018-02-16T06:03:33.887Z,17.60
2018-02-16T06:04:05.612Z,17.60
2018-02-16T06:04:37.354Z,17.60
2018-02-16T06:05:09.123Z,17.60
2018-02-16T06:05:40.862Z,17.60
2018-02-16T06:06:12.598Z,17.60
2018-02-16T06:06:44.345Z,17.60
2018-02-16T06:07:16.088Z,17.60
2018-02-16T06:07:47.830Z,17.60
2018-02-16T06:08:19.584Z,17.70
2018-02-16T06:08:51.409Z,17.70
2018-02-16T06:09:23.090Z,17.60
2018-02-16T06:09:54.840Z,17.60
2018-02-16T06:10:26.629Z,17.70
2018-02-16T06:10:58.331Z,17.60
2018-02-16T06:11:30.082Z,17.70
2018-02-16T06:12:01.827Z,17.70
2018-02-16T06:12:33.571Z,17.60
2018-02-16T06:13:05.292Z,17.60
2018-02-16T06:13:37.104Z,17.70
2018-02-16T06:14:08.844Z,17.60
2018-02-16T06:14:40.605Z,17.70
2018-02-16T06:15:12.360Z,17.60
2018-02-16T06:15:44.080Z,17.70
2018-02-16T06:16:15.820Z,17.70
2018-02-16T06:16:48.317Z,17.60
2018-02-16T06:17:20.048Z,17.60
2018-02-16T06:17:51.803Z,17.70
2018-02-16T06:18:23.514Z,17.60
2018-02-16T06:18:55.256Z,17.60
2018-02-16T06:19:27.801Z,17.60
2018-02-16T06:19:59.558Z,17.70
2018-02-16T06:20:31.312Z,17.60
2018-02-16T06:21:03.824Z,17.70
2018-02-16T06:21:35.563Z,17.70
2018-02-16T06:22:07.335Z,17.70
2018-02-16T06:22:39.080Z,17.70
2018-02-16T06:23:10.812Z,17.70
2018-02-16T06:23:42.739Z,17.60
2018-02-16T06:24:14.948Z,17.70
2018-02-16T06:24:47.439Z,17.70
2018-02-16T06:25:19.204Z,17.70
2018-02-16T06:25:50.955Z,17.60
2018-02-16T06:26:22.694Z,17.70
2018-02-16T06:26:54.428Z,17.70
2018-02-16T06:27:26.224Z,17.70
2018-02-16T06:27:58.803Z,17.70
2018-02-16T06:28:30.564Z,17.70
2018-02-16T06:29:02.309Z,17.70
2018-02-16T06:29:34.028Z,17.70
2018-02-16T06:30:06.536Z,17.70
2018-02-16T06:30:38.282Z,17.70
2018-02-16T06:31:10.032Z,17.70
2018-02-16T06:31:41.775Z,17.60
2018-02-16T06:32:13.501Z,17.70
2018-02-16T06:32:45.283Z,17.70
2018-02-16T06:33:17.037Z,17.70
2018-02-16T06:33:48.772Z,17.70
2018-02-16T06:34:20.530Z,17.70
2018-02-16T06:34:52.273Z,17.70
2018-02-16T06:35:24.026Z,17.70
2018-02-16T06:35:56.554Z,17.70
2018-02-16T06:36:28.305Z,17.70
2018-02-16T06:37:00.041Z,17.70
2018-02-16T06:37:31.780Z,17.70
2018-02-16T06:38:03.534Z,17.70
2018-02-16T06:38:35.281Z,17.70
2018-02-16T06:39:07.029Z,17.70
2018-02-16T06:39:38.770Z,17.70
2018-02-16T06:40:10.526Z,17.70
2018-02-16T06:40:42.283Z,17.70
2018-02-16T06:41:14.024Z,17.70
2018-02-16T06:41:45.773Z,17.70
2018-02-16T06:42:17.552Z,17.70
2018-02-16T06:42:49.300Z,17.70
2018-02-16T06:43:21.028Z,17.70
2018-02-16T06:43:53.548Z,17.70
2018-02-16T06:44:25.285Z,17.70
2018-02-16T06:44:57.037Z,17.70
2018-02-16T06:45:28.814Z,17.70
2018-02-16T06:46:00.559Z,17.70
2018-02-16T06:46:33.086Z,17.70
2018-02-16T06:47:04.829Z,17.70
2018-02-16T06:47:36.573Z,17.70
2018-02-16T06:48:08.346Z,17.70
2018-02-16T06:48:40.115Z,17.70
2018-02-16T06:49:11.907Z,17.70
2018-02-16T06:49:43.666Z,17.70
2018-02-16T06:50:15.417Z,17.70